createdAt,value
2018-10-01T00:02:09.979Z,4.03
2018-10-01T00:04:38.948Z,4.30
2018-10-01T00:07:08.089Z,4.70
2018-10-01T00:09:36.954Z,4.60
2018-10-01T00:12:05.999Z,4.60
2018-10-01T00:14:34.705Z,3.20
2018-10-01T00:17:03.676Z,3.50
2018-10-01T00:19:37.706Z,3.40
2018-10-01T00:22:12.220Z,3.77
2018-10-01T00:24:41.108Z,3.60
2018-10-01T00:27:09.745Z,2.97
2018-10-01T00:29:38.597Z,3.23
2018-10-01T00:32:07.770Z,2.80
2018-10-01T00:34:36.680Z,3.20
2018-10-01T00:37:05.702Z,3.17
2018-10-01T00:39:34.328Z,3.30
2018-10-01T00:42:03.181Z,3.10
2018-10-01T00:44:32.077Z,3.57
2018-10-01T00:47:00.979Z,3.57
2018-10-01T00:49:29.775Z,3.13
2018-10-01T00:51:58.754Z,3.07
2018-10-01T00:54:27.395Z,3.60
2018-10-01T00:56:56.370Z,2.80
2018-10-01T00:59:25.272Z,3.50
2018-10-01T01:01:54.281Z,3.63
2018-10-01T01:04:23.004Z,3.40
2018-10-01T01:06:51.821Z,3.10
2018-10-01T01:09:20.783Z,3.30
2018-10-01T01:11:49.731Z,3.43
2018-10-01T01:14:18.514Z,3.10
2018-10-01T01:16:47.360Z,3.40
2018-10-01T01:19:15.996Z,3.43
2018-10-01T01:21:44.909Z,4.00
2018-10-01T01:24:14.207Z,3.70
2018-10-01T01:26:43.277Z,3.30
2018-10-01T01:29:12.162Z,4.17
2018-10-01T01:31:40.793Z,4.67
2018-10-01T01:34:09.724Z,4.50
2018-10-01T01:36:38.817Z,4.47
2018-10-01T01:39:14.500Z,4.53
2018-10-01T01:41:43.409Z,4.03
2018-10-01T01:44:12.406Z,4.40
2018-10-01T01:46:41.493Z,4.03
2018-10-01T01:49:09.998Z,4.13
2018-10-01T01:51:38.800Z,4.03
2018-10-01T01:54:07.745Z,4.40
2018-10-01T01:56:36.552Z,4.23
2018-10-01T01:59:05.174Z,3.70
2018-10-01T02:01:33.816Z,4.17
2018-10-01T02:04:02.559Z,3.93
2018-10-01T02:06:31.134Z,3.93
2018-10-01T02:08:59.656Z,4.37
2018-10-01T02:11:28.138Z,4.20
2018-10-01T02:13:56.792Z,4.17
2018-10-01T02:16:25.329Z,4.87
2018-10-01T02:18:53.847Z,4.30
2018-10-01T02:21:22.660Z,4.83
2018-10-01T02:23:51.447Z,4.50
2018-10-01T02:26:20.148Z,4.07
2018-10-01T02:28:48.942Z,4.40
2018-10-01T02:31:17.986Z,4.10
2018-10-01T02:33:46.905Z,4.23
2018-10-01T02:36:15.762Z,4.13
2018-10-01T02:38:44.691Z,4.57
2018-10-01T02:41:13.568Z,4.07
2018-10-01T02:43:42.605Z,4.23
2018-10-01T02:46:11.276Z,4.50
2018-10-01T02:48:40.014Z,4.10
2018-10-01T02:51:08.788Z,4.20
2018-10-01T02:53:44.088Z,4.13
2018-10-01T02:56:12.588Z,4.50
2018-10-01T02:58:41.535Z,4.40
2018-10-01T03:01:10.465Z,4.30
2018-10-01T03:03:39.486Z,4.70
2018-10-01T03:06:08.626Z,4.80
2018-10-01T03:08:37.480Z,4.33
2018-10-01T03:11:06.127Z,5.23
2018-10-01T03:13:34.897Z,4.53
2018-10-01T03:16:03.892Z,4.80
2018-10-01T03:18:32.712Z,4.30
2018-10-01T03:21:01.827Z,4.60
2018-10-01T03:23:31.077Z,4.77
2018-10-01T03:25:59.781Z,4.60
2018-10-01T03:28:28.632Z,4.80
2018-10-01T03:30:57.176Z,4.90
2018-10-01T03:33:25.953Z,4.80
2018-10-01T03:35:54.678Z,4.90
2018-10-01T03:38:23.517Z,5.60
2018-10-01T03:40:52.141Z,5.90
2018-10-01T03:43:20.964Z,4.73
2018-10-01T03:45:49.634Z,4.40
2018-10-01T03:48:18.621Z,4.33
2018-10-01T03:50:47.532Z,4.37
2018-10-01T03:53:16.528Z,5.07
2018-10-01T03:55:45.136Z,5.27
2018-10-01T03:58:14.315Z,4.87
2018-10-01T04:00:43.247Z,4.30
2018-10-01T04:03:12.083Z,4.47
2018-10-01T04:05:40.879Z,4.23
2018-10-01T04:08:09.636Z,4.33
2018-10-01T04:10:38.499Z,4.57
2018-10-01T04:13:07.463Z,4.83
2018-10-01T04:15:36.988Z,4.90
2018-10-01T04:18:05.995Z,4.90
2018-10-01T04:20:34.719Z,4.53
2018-10-01T04:23:03.560Z,5.00
2018-10-01T04:25:32.240Z,4.73
2018-10-01T04:28:01.197Z,4.27
2018-10-01T04:30:29.985Z,4.27
2018-10-01T04:32:58.910Z,5.07
2018-10-01T04:35:27.660Z,4.73
2018-10-01T04:37:56.285Z,4.57
2018-10-01T04:40:24.688Z,5.00
2018-10-01T04:42:53.225Z,5.43
2018-10-01T04:45:21.871Z,6.27
2018-10-01T04:47:50.307Z,6.85
2018-10-01T04:50:19.051Z,7.47
2018-10-01T04:52:47.730Z,8.00
2018-10-01T04:55:16.500Z,9.10
2018-10-01T04:57:45.192Z,7.50
2018-10-01T05:00:13.972Z,8.30
2018-10-01T05:02:42.646Z,8.37
2018-10-01T05:05:11.568Z,7.17
2018-10-01T05:07:40.340Z,6.53
2018-10-01T05:10:09.262Z,6.47
2018-10-01T05:12:38.020Z,6.73
2018-10-01T05:15:06.694Z,6.50
2018-10-01T05:17:35.691Z,7.17
2018-10-01T05:20:04.600Z,7.07
2018-10-01T05:22:33.348Z,6.57
2018-10-01T05:25:01.973Z,6.93
2018-10-01T05:27:30.737Z,6.67
2018-10-01T05:29:59.553Z,6.27
2018-10-01T05:32:28.338Z,6.20
2018-10-01T05:34:57.123Z,5.77
2018-10-01T05:37:26.193Z,6.00
2018-10-01T05:39:55.047Z,5.97
2018-10-01T05:42:23.684Z,6.33
2018-10-01T05:44:52.446Z,5.47
2018-10-01T05:47:21.123Z,5.50
2018-10-01T05:49:49.628Z,6.13
2018-10-01T05:53:05.696Z,6.47
2018-10-01T05:56:25.730Z,6.27
2018-10-01T05:59:43.805Z,6.07
2018-10-01T06:02:59.859Z,7.67
2018-10-01T06:05:51.489Z,7.13
2018-10-01T06:08:19.934Z,7.83
2018-10-01T06:10:48.713Z,8.77
2018-10-01T06:13:17.387Z,8.37
2018-10-01T06:15:45.859Z,8.90
2018-10-01T06:18:14.610Z,8.50
2018-10-01T06:20:43.139Z,9.40
2018-10-01T06:23:11.923Z,8.93
2018-10-01T06:25:40.772Z,9.27
2018-10-01T06:28:09.874Z,9.13
2018-10-01T06:30:38.717Z,9.73
2018-10-01T06:33:07.435Z,9.97
2018-10-01T06:35:36.650Z,12.20
2018-10-01T06:38:05.345Z,16.00
2018-10-01T06:40:34.007Z,16.90
2018-10-01T06:43:02.760Z,17.80
2018-10-01T06:45:31.465Z,19.50
2018-10-01T06:48:00.267Z,20.40
2018-10-01T06:50:28.892Z,21.00
2018-10-01T06:52:57.512Z,20.53
2018-10-01T06:55:26.290Z,18.60
2018-10-01T06:57:55.273Z,16.50
2018-10-01T07:00:23.995Z,17.27
2018-10-01T07:02:52.867Z,16.40
2018-10-01T07:05:21.561Z,16.13
2018-10-01T07:07:50.212Z,14.60
2018-10-01T07:10:18.995Z,14.87
2018-10-01T07:12:47.607Z,12.83
2018-10-01T07:15:16.824Z,13.30
2018-10-01T07:17:45.585Z,12.83
2018-10-01T07:20:14.300Z,11.83
2018-10-01T07:22:43.155Z,11.90
2018-10-01T07:25:12.132Z,10.90
2018-10-01T07:27:40.763Z,10.67
2018-10-01T07:30:09.500Z,10.97
2018-10-01T07:32:38.108Z,9.97
2018-10-01T07:35:06.918Z,10.83
2018-10-01T07:37:35.661Z,8.83
2018-10-01T07:40:04.702Z,8.70
2018-10-01T07:42:33.520Z,8.50
2018-10-01T07:45:03.276Z,8.77
2018-10-01T07:47:32.075Z,9.55
2018-10-01T07:50:00.875Z,9.10
2018-10-01T07:52:29.562Z,9.00
2018-10-01T07:54:58.312Z,9.35
2018-10-01T07:57:27.046Z,9.40
2018-10-01T07:59:55.952Z,7.78
2018-10-01T08:02:24.612Z,9.25
2018-10-01T08:04:53.400Z,8.80
2018-10-01T08:07:21.785Z,8.90
2018-10-01T08:09:50.197Z,7.53
2018-10-01T08:12:18.964Z,9.17
2018-10-01T08:14:47.837Z,9.07
2018-10-01T08:17:16.533Z,7.90
2018-10-01T08:19:44.944Z,8.27
2018-10-01T08:22:13.735Z,7.83
2018-10-01T08:24:42.808Z,8.93
2018-10-01T08:27:11.792Z,7.60
2018-10-01T08:29:40.828Z,7.67
2018-10-01T08:32:09.495Z,7.70
2018-10-01T08:34:38.827Z,7.53
2018-10-01T08:37:07.589Z,7.00
2018-10-01T08:39:36.333Z,6.83
2018-10-01T08:42:05.218Z,6.97
2018-10-01T08:44:34.078Z,8.00
2018-10-01T08:47:02.955Z,8.47
2018-10-01T08:49:37.379Z,7.83
2018-10-01T08:52:10.853Z,7.37
2018-10-01T08:54:41.716Z,7.33
2018-10-01T08:57:10.143Z,7.33
2018-10-01T08:59:38.927Z,7.73
2018-10-01T09:02:07.521Z,7.30
2018-10-01T09:04:36.187Z,7.73
2018-10-01T09:07:05.415Z,7.80
2018-10-01T09:09:34.051Z,7.40
2018-10-01T09:12:02.466Z,12.07
2018-10-01T09:14:31.535Z,7.30
2018-10-01T09:17:00.305Z,8.63
2018-10-01T09:19:28.697Z,8.57
2018-10-01T09:21:57.586Z,7.63
2018-10-01T09:24:26.538Z,7.83
2018-10-01T09:26:55.223Z,7.20
2018-10-01T09:29:23.774Z,7.30
2018-10-01T09:31:52.484Z,6.77
2018-10-01T09:34:21.196Z,6.97
2018-10-01T09:36:49.916Z,5.80
2018-10-01T09:39:18.667Z,7.73
2018-10-01T09:41:47.475Z,7.63
2018-10-01T09:44:16.240Z,6.77
2018-10-01T09:46:44.549Z,7.80
2018-10-01T09:49:13.211Z,7.60
2018-10-01T09:51:41.976Z,8.03
2018-10-01T09:54:10.729Z,7.53
2018-10-01T09:56:39.766Z,7.73
2018-10-01T09:59:08.367Z,6.90
2018-10-01T10:01:37.028Z,6.97
2018-10-01T10:04:05.578Z,7.23
2018-10-01T10:06:34.700Z,6.73
2018-10-01T10:09:04.555Z,8.20
2018-10-01T10:11:33.346Z,7.63
2018-10-01T10:14:01.996Z,6.83
2018-10-01T10:16:30.871Z,7.00
2018-10-01T10:18:59.580Z,7.33
2018-10-01T10:21:28.307Z,7.07
2018-10-01T10:23:57.239Z,6.60
2018-10-01T10:26:25.692Z,6.30
2018-10-01T10:28:54.552Z,7.30
2018-10-01T10:31:23.346Z,6.97
2018-10-01T10:33:52.101Z,8.15
2018-10-01T10:36:20.792Z,7.47
2018-10-01T10:38:49.679Z,7.47
2018-10-01T10:41:18.388Z,7.60
2018-10-01T10:43:47.362Z,6.53
2018-10-01T10:46:16.368Z,6.78
2018-10-01T10:48:45.011Z,6.42
2018-10-01T10:51:14.247Z,6.30
2018-10-01T10:53:43.164Z,6.58
2018-10-01T10:56:11.748Z,6.45
2018-10-01T10:58:40.867Z,5.83
2018-10-01T11:01:09.532Z,6.00
2018-10-01T11:03:38.171Z,6.35
2018-10-01T11:06:06.676Z,5.78
2018-10-01T11:08:35.371Z,6.10
2018-10-01T11:11:04.516Z,6.75
2018-10-01T11:13:33.341Z,5.05
2018-10-01T11:16:02.476Z,5.70
2018-10-01T11:18:37.927Z,5.78
2018-10-01T11:21:08.053Z,6.10
2018-10-01T11:23:36.648Z,5.45
2018-10-01T11:26:05.411Z,5.37
2018-10-01T11:28:34.052Z,5.65
2018-10-01T11:31:04.599Z,5.97
2018-10-01T11:33:33.433Z,5.33
2018-10-01T11:36:02.003Z,5.50
2018-10-01T11:38:30.834Z,6.17
2018-10-01T11:40:59.808Z,5.33
2018-10-01T11:43:28.640Z,7.73
2018-10-01T11:45:57.391Z,5.90
2018-10-01T11:48:26.248Z,5.53
2018-10-01T11:50:54.977Z,5.67
2018-10-01T11:53:23.723Z,6.50
2018-10-01T11:55:52.459Z,5.53
2018-10-01T11:58:21.164Z,6.13
2018-10-01T12:00:49.889Z,5.57
2018-10-01T12:03:18.478Z,5.80
2018-10-01T12:05:47.187Z,5.60
2018-10-01T12:08:15.935Z,5.67
2018-10-01T12:10:45.090Z,5.27
2018-10-01T12:13:13.893Z,5.10
2018-10-01T12:15:42.842Z,5.67
2018-10-01T12:18:11.912Z,6.20
2018-10-01T12:20:40.540Z,5.43
2018-10-01T12:23:08.920Z,5.63
2018-10-01T12:25:37.660Z,4.90
2018-10-01T12:28:06.412Z,5.83
2018-10-01T12:30:35.055Z,6.03
2018-10-01T12:33:03.970Z,5.67
2018-10-01T12:35:32.815Z,5.13
2018-10-01T12:38:01.737Z,5.00
2018-10-01T12:40:30.390Z,5.63
2018-10-01T12:42:59.286Z,5.33
2018-10-01T12:45:27.950Z,5.37
2018-10-01T12:47:56.535Z,4.93
2018-10-01T12:50:25.390Z,6.03
2018-10-01T12:52:54.157Z,5.27
2018-10-01T12:55:22.906Z,5.00
2018-10-01T12:57:52.111Z,5.37
2018-10-01T13:00:20.737Z,5.43
2018-10-01T13:02:49.507Z,5.07
2018-10-01T13:05:18.106Z,5.60
2018-10-01T13:07:46.780Z,5.00
2018-10-01T13:10:15.679Z,5.37
2018-10-01T13:12:44.242Z,5.30
2018-10-01T13:15:13.054Z,6.20
2018-10-01T13:17:41.682Z,5.70
2018-10-01T13:20:10.516Z,6.07
2018-10-01T13:22:39.312Z,5.67
2018-10-01T13:25:08.177Z,7.80
2018-10-01T13:27:36.795Z,6.10
2018-10-01T13:30:05.538Z,5.97
2018-10-01T13:32:34.277Z,5.70
2018-10-01T13:35:02.992Z,5.83
2018-10-01T13:37:31.717Z,6.10
2018-10-01T13:40:00.519Z,6.50
2018-10-01T13:42:29.332Z,6.90
2018-10-01T13:44:58.185Z,6.10
2018-10-01T13:47:26.696Z,5.77
2018-10-01T13:49:55.231Z,5.60
2018-10-01T13:52:23.991Z,5.33
2018-10-01T13:54:52.729Z,5.90
2018-10-01T13:57:21.420Z,5.50
2018-10-01T13:59:50.536Z,5.87
2018-10-01T14:02:19.172Z,5.37
2018-10-01T14:04:47.824Z,5.53
2018-10-01T14:07:16.648Z,5.23
2018-10-01T14:09:45.404Z,5.60
2018-10-01T14:12:14.039Z,5.60
2018-10-01T14:14:43.128Z,6.63
2018-10-01T14:17:11.772Z,7.50
2018-10-01T14:19:40.461Z,5.90
2018-10-01T14:22:09.280Z,6.63
2018-10-01T14:24:37.940Z,5.70
2018-10-01T14:27:06.669Z,5.47
2018-10-01T14:29:35.245Z,5.70
2018-10-01T14:32:03.935Z,5.50
2018-10-01T14:34:32.713Z,5.77
2018-10-01T14:37:04.379Z,6.30
2018-10-01T14:39:33.225Z,5.90
2018-10-01T14:42:02.071Z,6.00
2018-10-01T14:44:30.834Z,5.93
2018-10-01T14:46:59.584Z,5.80
2018-10-01T14:49:28.257Z,6.23
2018-10-01T14:51:56.876Z,6.83
2018-10-01T14:54:25.759Z,7.50
2018-10-01T14:56:54.690Z,7.50
2018-10-01T14:59:23.555Z,7.83
2018-10-01T15:01:52.318Z,7.87
2018-10-01T15:04:21.402Z,7.03
2018-10-01T15:06:50.598Z,7.17
2018-10-01T15:09:19.295Z,7.30
2018-10-01T15:11:48.198Z,6.40
2018-10-01T15:14:16.947Z,5.77
2018-10-01T15:16:45.894Z,7.63
2018-10-01T15:19:14.591Z,6.43
2018-10-01T15:21:43.266Z,6.27
2018-10-01T15:24:12.185Z,6.90
2018-10-01T15:26:40.956Z,7.77
2018-10-01T15:29:09.651Z,8.03
2018-10-01T15:31:38.290Z,7.63
2018-10-01T15:34:07.073Z,7.20
2018-10-01T15:36:35.869Z,7.43
2018-10-01T15:39:06.804Z,7.17
2018-10-01T15:41:35.619Z,7.03
2018-10-01T15:44:04.007Z,6.47
2018-10-01T15:46:32.977Z,6.90
2018-10-01T15:49:01.819Z,7.33
2018-10-01T15:51:30.542Z,7.20
2018-10-01T15:53:59.459Z,6.80
2018-10-01T15:56:28.151Z,5.47
2018-10-01T15:58:57.642Z,5.33
2018-10-01T16:01:26.531Z,5.63
2018-10-01T16:03:55.262Z,5.17
2018-10-01T16:06:23.988Z,5.40
2018-10-01T16:08:52.710Z,5.67
2018-10-01T16:11:21.443Z,5.63
2018-10-01T16:13:50.321Z,5.53
2018-10-01T16:16:19.311Z,5.33
2018-10-01T16:18:48.220Z,5.93
2018-10-01T16:21:16.944Z,5.27
2018-10-01T16:23:45.621Z,4.70
2018-10-01T16:26:14.512Z,5.03
2018-10-01T16:28:43.287Z,5.80
2018-10-01T16:31:12.137Z,5.27
2018-10-01T16:33:40.972Z,5.80
2018-10-01T16:36:09.667Z,5.40
2018-10-01T16:38:38.252Z,4.93
2018-10-01T16:41:07.744Z,5.60
2018-10-01T16:43:36.643Z,5.77
2018-10-01T16:46:05.263Z,6.03
2018-10-01T16:48:34.067Z,6.27
2018-10-01T16:51:02.645Z,5.70
2018-10-01T16:53:30.987Z,5.73
2018-10-01T16:55:59.385Z,5.00
2018-10-01T16:58:28.186Z,6.13
2018-10-01T17:00:56.875Z,5.77
2018-10-01T17:03:25.290Z,5.40
2018-10-01T17:05:58.270Z,5.00
2018-10-01T17:08:28.203Z,5.43
2018-10-01T17:10:57.065Z,5.93
2018-10-01T17:13:25.870Z,4.90
2018-10-01T17:15:55.010Z,5.93
2018-10-01T17:18:24.681Z,5.80
2018-10-01T17:20:53.313Z,5.20
2018-10-01T17:23:21.787Z,5.30
2018-10-01T17:25:50.539Z,5.80
2018-10-01T17:28:19.020Z,5.63
2018-10-01T17:30:47.697Z,5.87
2018-10-01T17:33:16.194Z,5.80
2018-10-01T17:35:44.876Z,5.40
2018-10-01T17:38:13.608Z,4.90
2018-10-01T17:40:42.240Z,5.30
2018-10-01T17:43:10.683Z,5.97
2018-10-01T17:45:39.403Z,5.60
2018-10-01T17:48:08.865Z,6.57
2018-10-01T17:50:37.413Z,6.37
2018-10-01T17:53:06.652Z,5.70
2018-10-01T17:55:35.112Z,6.30
2018-10-01T17:58:03.729Z,7.23
2018-10-01T18:00:33.336Z,6.67
2018-10-01T18:03:02.530Z,6.20
2018-10-01T18:05:31.246Z,6.60
2018-10-01T18:07:59.992Z,6.90
2018-10-01T18:10:28.553Z,6.60
2018-10-01T18:12:56.984Z,6.77
2018-10-01T18:15:25.398Z,6.20
2018-10-01T18:17:53.888Z,6.73
2018-10-01T18:20:22.734Z,6.00
2018-10-01T18:22:51.164Z,5.93
2018-10-01T18:25:19.629Z,6.83
2018-10-01T18:27:48.304Z,6.80
2018-10-01T18:30:17.194Z,6.13
2018-10-01T18:32:45.957Z,6.33
2018-10-01T18:35:14.773Z,6.03
2018-10-01T18:37:43.460Z,8.07
2018-10-01T18:40:13.348Z,7.53
2018-10-01T18:42:41.992Z,7.70
2018-10-01T18:45:11.112Z,6.67
2018-10-01T18:47:39.869Z,5.70
2018-10-01T18:50:08.910Z,6.07
2018-10-01T18:52:37.692Z,6.13
2018-10-01T18:55:06.814Z,6.70
2018-10-01T18:57:35.513Z,5.57
2018-10-01T19:00:05.329Z,5.40
2018-10-01T19:02:34.284Z,5.10
2018-10-01T19:05:03.587Z,5.07
2018-10-01T19:07:32.447Z,4.80
2018-10-01T19:10:01.071Z,6.10
2018-10-01T19:12:29.742Z,7.37
2018-10-01T19:14:58.976Z,7.53
2018-10-01T19:17:27.823Z,7.07
2018-10-01T19:19:56.918Z,7.73
2018-10-01T19:22:25.765Z,6.53
2018-10-01T19:24:54.591Z,5.87
2018-10-01T19:27:23.380Z,5.50
2018-10-01T19:29:52.146Z,6.27
2018-10-01T19:32:20.949Z,5.57
2018-10-01T19:34:49.837Z,5.77
2018-10-01T19:37:18.647Z,6.00
2018-10-01T19:39:47.333Z,6.10
2018-10-01T19:42:15.928Z,5.37
2018-10-01T19:44:44.645Z,6.80
2018-10-01T19:47:13.508Z,6.00
2018-10-01T19:49:42.147Z,6.67
2018-10-01T19:52:10.844Z,6.33
2018-10-01T19:54:39.525Z,6.00
2018-10-01T19:57:08.210Z,5.60
2018-10-01T19:59:37.196Z,6.23
2018-10-01T20:02:06.019Z,6.30
2018-10-01T20:04:34.675Z,5.40
2018-10-01T20:07:03.528Z,6.27
2018-10-01T20:09:32.241Z,6.77
2018-10-01T20:12:01.143Z,6.30
2018-10-01T20:14:29.701Z,5.97
2018-10-01T20:16:58.520Z,6.85
2018-10-01T20:19:27.149Z,6.47
2018-10-01T20:21:55.885Z,6.90
2018-10-01T20:24:25.153Z,6.90
2018-10-01T20:26:54.021Z,6.60
2018-10-01T20:29:23.397Z,7.27
2018-10-01T20:31:52.545Z,6.83
2018-10-01T20:34:21.681Z,6.60
2018-10-01T20:36:50.916Z,6.50
2018-10-01T20:39:20.800Z,6.60
2018-10-01T20:41:49.769Z,6.77
2018-10-01T20:44:19.223Z,7.87
2018-10-01T20:46:48.820Z,7.40
2018-10-01T20:49:18.031Z,7.30
2018-10-01T20:51:46.988Z,7.27
2018-10-01T20:54:16.153Z,7.00
2018-10-01T20:56:45.405Z,6.57
2018-10-01T20:59:14.307Z,6.57
2018-10-01T21:01:43.587Z,6.80
2018-10-01T21:04:12.658Z,6.80
2018-10-01T21:06:41.922Z,7.07
2018-10-01T21:09:13.351Z,7.10
2018-10-01T21:11:42.638Z,7.30
2018-10-01T21:14:12.150Z,7.07
2018-10-01T21:16:41.207Z,6.57
2018-10-01T21:19:10.712Z,6.70
2018-10-01T21:21:40.483Z,7.10
2018-10-01T21:24:09.687Z,7.07
2018-10-01T21:26:38.930Z,6.90
2018-10-01T21:29:08.319Z,6.40
2018-10-01T21:31:37.174Z,6.67
2018-10-01T21:34:06.751Z,6.97
2018-10-01T21:36:35.571Z,7.10
2018-10-01T21:39:06.671Z,7.20
2018-10-01T21:41:35.491Z,7.20
2018-10-01T21:44:05.273Z,8.10
2018-10-01T21:46:34.171Z,6.90
2018-10-01T21:49:03.253Z,6.17
2018-10-01T21:51:31.914Z,7.00
2018-10-01T21:54:00.580Z,6.80
2018-10-01T21:56:29.232Z,6.67
2018-10-01T21:58:58.079Z,6.40
2018-10-01T22:01:32.426Z,6.53
2018-10-01T22:04:01.899Z,6.23
2018-10-01T22:06:30.577Z,7.27
2018-10-01T22:08:59.180Z,7.40
2018-10-01T22:11:27.909Z,6.40
2018-10-01T22:13:56.637Z,6.30
2018-10-01T22:16:25.335Z,6.60
2018-10-01T22:18:54.175Z,6.27
2018-10-01T22:21:23.101Z,5.87
2018-10-01T22:23:51.753Z,6.57
2018-10-01T22:26:20.357Z,5.77
2018-10-01T22:28:49.227Z,5.93
2018-10-01T22:31:17.817Z,6.27
2018-10-01T22:33:46.626Z,5.40
2018-10-01T22:36:15.517Z,6.30
2018-10-01T22:38:44.279Z,5.37
2018-10-01T22:41:13.098Z,5.50
2018-10-01T22:43:41.908Z,5.80
2018-10-01T22:46:10.641Z,5.40
2018-10-01T22:48:39.352Z,5.37
2018-10-01T22:51:08.131Z,5.50
2018-10-01T22:53:36.797Z,5.10
2018-10-01T22:56:05.716Z,5.40
2018-10-01T22:58:34.376Z,5.40
2018-10-01T23:01:03.290Z,5.80
2018-10-01T23:03:32.060Z,5.60
2018-10-01T23:06:01.040Z,5.17
2018-10-01T23:08:29.756Z,5.20
2018-10-01T23:10:58.496Z,5.33
2018-10-01T23:13:27.232Z,4.73
2018-10-01T23:15:56.018Z,4.87
2018-10-01T23:18:25.100Z,6.60
2018-10-01T23:20:54.003Z,5.43
2018-10-01T23:23:22.779Z,5.27
2018-10-01T23:25:51.640Z,5.40
2018-10-01T23:28:20.558Z,5.97
2018-10-01T23:30:50.178Z,5.33
2018-10-01T23:33:19.025Z,5.73
2018-10-01T23:35:47.839Z,6.37
2018-10-01T23:38:16.634Z,6.30
2018-10-01T23:40:45.368Z,5.37
2018-10-01T23:43:14.325Z,6.60
2018-10-01T23:45:43.274Z,6.70
2018-10-01T23:48:11.953Z,6.60
2018-10-01T23:50:40.582Z,6.40
2018-10-01T23:53:09.516Z,7.37
2018-10-01T23:55:38.247Z,6.83
2018-10-01T23:58:06.883Z,7.10
